TAP68JP LPMA-LPPT
Flight info
| Callsign | TAP68JP |
|---|---|
| Flight time | 1h 18m |
| Altitude | 36000 |
| Route | DEGUN DCT NARTA DCT ESUTI |
| Aircraft | A320/M-SDE3FGHIRWY/LB1 |
Departure
| Time | 2026-05-05 20:41 |
|---|---|
| Airport | Cristiano Ronaldo International Airport (LPMA) |
Arrival
| Time | 2026-05-05 21:59 |
|---|---|
| Airport | Lisbon Humberto Delgado Airport (LPPT) |
| Time | Latitude | Longitude | Altitude | Speed | Heading |
|---|---|---|---|---|---|
| 2026-05-05 20:06 | 32.69441 | -16.77556 | 169 ft | 0 kts | 138° |
| 2026-05-05 20:32 | 32.69441 | -16.77557 | 142 ft | 0 kts | 138° |
| 2026-05-05 20:33 | 32.69443 | -16.77559 | 169 ft | 3 kts | 138° |
| 2026-05-05 20:34 | 32.69462 | -16.77579 | 169 ft | 2 kts | 138° |
| 2026-05-05 20:34 | 32.69480 | -16.77594 | 169 ft | 4 kts | 171° |
| 2026-05-05 20:34 | 32.69504 | -16.77589 | 169 ft | 4 kts | 220° |
| 2026-05-05 20:34 | 32.69522 | -16.77568 | 169 ft | 3 kts | 226° |
| 2026-05-05 20:35 | 32.69524 | -16.77566 | 169 ft | 0 kts | 226° |
| 2026-05-05 20:36 | 32.69504 | -16.77590 | 169 ft | 13 kts | 226° |
| 2026-05-05 20:37 | 32.69480 | -16.77621 | 169 ft | 0 kts | 226° |
| 2026-05-05 20:37 | 32.69463 | -16.77641 | 169 ft | 8 kts | 226° |
| 2026-05-05 20:37 | 32.69399 | -16.77721 | 169 ft | 17 kts | 226° |
| 2026-05-05 20:38 | 32.69329 | -16.77808 | 169 ft | 12 kts | 226° |
| 2026-05-05 20:38 | 32.69310 | -16.77831 | 169 ft | 0 kts | 226° |
| 2026-05-05 20:38 | 32.69309 | -16.77833 | 169 ft | 2 kts | 227° |
| 2026-05-05 20:38 | 32.69287 | -16.77912 | 169 ft | 19 kts | 268° |
| 2026-05-05 20:39 | 32.69230 | -16.78098 | 167 ft | 31 kts | 225° |
| 2026-05-05 20:39 | 32.69062 | -16.78296 | 157 ft | 35 kts | 224° |
| 2026-05-05 20:39 | 32.68895 | -16.78421 | 153 ft | 15 kts | 223° |
| 2026-05-05 20:39 | 32.68898 | -16.78453 | 153 ft | 7 kts | 315° |
| 2026-05-05 20:40 | 32.68968 | -16.78402 | 153 ft | 22 kts | 47° |
| 2026-05-05 20:40 | 32.69168 | -16.78168 | 164 ft | 68 kts | 44° |
| 2026-05-05 20:40 | 32.69641 | -16.77615 | 178 ft | 120 kts | 45° |
| 2026-05-05 20:40 | 32.70310 | -16.76806 | 452 ft | 143 kts | 44° |
| 2026-05-05 20:41 | 32.70915 | -16.75866 | 1022 ft | 147 kts | 65° |
| 2026-05-05 20:41 | 32.71125 | -16.74679 | 1745 ft | 150 kts | 86° |
| 2026-05-05 20:41 | 32.70851 | -16.73450 | 2279 ft | 164 kts | 104° |
| 2026-05-05 20:41 | 32.70421 | -16.72156 | 2797 ft | 173 kts | 104° |
| 2026-05-05 20:42 | 32.69989 | -16.70778 | 3266 ft | 185 kts | 107° |
| 2026-05-05 20:42 | 32.69523 | -16.69283 | 3663 ft | 201 kts | 107° |
| 2026-05-05 20:42 | 32.68999 | -16.67636 | 3973 ft | 227 kts | 108° |
| 2026-05-05 20:42 | 32.68406 | -16.65796 | 4429 ft | 249 kts | 109° |
| 2026-05-05 20:43 | 32.67771 | -16.63825 | 5172 ft | 260 kts | 109° |
| 2026-05-05 20:43 | 32.67122 | -16.61792 | 5941 ft | 270 kts | 109° |
| 2026-05-05 20:43 | 32.66455 | -16.59690 | 6091 ft | 273 kts | 109° |
| 2026-05-05 20:43 | 32.65867 | -16.57554 | 6131 ft | 272 kts | 99° |
| 2026-05-05 20:44 | 32.65832 | -16.55332 | 6124 ft | 270 kts | 79° |
| 2026-05-05 20:44 | 32.66424 | -16.53240 | 6129 ft | 268 kts | 60° |
| 2026-05-05 20:44 | 32.67558 | -16.51501 | 6137 ft | 268 kts | 43° |
| 2026-05-05 20:44 | 32.68937 | -16.49954 | 6775 ft | 273 kts | 43° |
| 2026-05-05 20:45 | 32.71700 | -16.46817 | 8548 ft | 279 kts | 43° |
| 2026-05-05 20:45 | 32.73093 | -16.45226 | 9378 ft | 284 kts | 43° |
| 2026-05-05 20:45 | 32.74545 | -16.43567 | 10204 ft | 289 kts | 43° |
| 2026-05-05 20:46 | 32.76024 | -16.41875 | 10552 ft | 311 kts | 43° |
| 2026-05-05 20:46 | 32.77640 | -16.40029 | 10842 ft | 332 kts | 43° |
| 2026-05-05 20:46 | 32.79331 | -16.38092 | 11426 ft | 342 kts | 43° |
| 2026-05-05 20:46 | 32.81061 | -16.36110 | 12120 ft | 348 kts | 42° |
| 2026-05-05 20:47 | 32.82818 | -16.34101 | 12824 ft | 354 kts | 42° |
| 2026-05-05 20:47 | 32.84604 | -16.32056 | 13522 ft | 359 kts | 41° |
| 2026-05-05 20:47 | 32.86414 | -16.29980 | 14172 ft | 364 kts | 41° |
| 2026-05-05 20:47 | 32.88252 | -16.27875 | 14772 ft | 369 kts | 41° |
| 2026-05-05 20:48 | 32.90109 | -16.25748 | 15385 ft | 374 kts | 41° |
| 2026-05-05 20:48 | 32.91996 | -16.23583 | 16004 ft | 378 kts | 41° |
| 2026-05-05 20:48 | 32.93899 | -16.21395 | 16626 ft | 382 kts | 42° |
| 2026-05-05 20:48 | 32.95817 | -16.19187 | 17232 ft | 387 kts | 42° |
| 2026-05-05 20:49 | 32.97761 | -16.16948 | 17835 ft | 391 kts | 41° |
| 2026-05-05 20:49 | 32.99728 | -16.14684 | 18433 ft | 395 kts | 41° |
| 2026-05-05 20:49 | 33.01689 | -16.12428 | 18942 ft | 399 kts | 41° |
| 2026-05-05 20:49 | 33.03722 | -16.10091 | 19475 ft | 403 kts | 41° |
| 2026-05-05 20:50 | 33.05718 | -16.07793 | 19988 ft | 406 kts | 41° |
| 2026-05-05 20:50 | 33.07759 | -16.05437 | 20482 ft | 410 kts | 41° |
| 2026-05-05 20:50 | 33.09815 | -16.03057 | 20978 ft | 414 kts | 41° |
| 2026-05-05 20:50 | 33.11892 | -16.00656 | 21459 ft | 418 kts | 41° |
| 2026-05-05 20:51 | 33.13989 | -15.98234 | 21942 ft | 422 kts | 41° |
| 2026-05-05 20:51 | 33.16106 | -15.95789 | 22417 ft | 425 kts | 41° |
| 2026-05-05 20:51 | 33.18240 | -15.93319 | 22878 ft | 429 kts | 41° |
| 2026-05-05 20:51 | 33.20393 | -15.90828 | 23342 ft | 433 kts | 41° |
| 2026-05-05 20:52 | 33.22563 | -15.88313 | 23777 ft | 437 kts | 41° |
| 2026-05-05 20:52 | 33.24749 | -15.85776 | 24157 ft | 440 kts | 41° |
| 2026-05-05 20:52 | 33.26950 | -15.83217 | 24534 ft | 443 kts | 41° |
| 2026-05-05 20:52 | 33.29163 | -15.80641 | 24934 ft | 445 kts | 41° |
| 2026-05-05 20:53 | 33.31390 | -15.78049 | 25315 ft | 448 kts | 41° |
| 2026-05-05 20:53 | 33.33629 | -15.75440 | 25701 ft | 451 kts | 42° |
| 2026-05-05 20:53 | 33.35880 | -15.72815 | 26074 ft | 453 kts | 41° |
| 2026-05-05 20:53 | 33.38114 | -15.70211 | 26446 ft | 456 kts | 41° |
| 2026-05-05 20:54 | 33.40392 | -15.67557 | 26805 ft | 458 kts | 42° |
| 2026-05-05 20:54 | 33.42684 | -15.64889 | 27166 ft | 461 kts | 41° |
| 2026-05-05 20:54 | 33.45009 | -15.62232 | 27524 ft | 463 kts | 41° |
| 2026-05-05 20:54 | 33.47364 | -15.59582 | 27878 ft | 466 kts | 40° |
| 2026-05-05 20:55 | 33.49742 | -15.56929 | 28239 ft | 468 kts | 40° |
| 2026-05-05 20:55 | 33.52131 | -15.54268 | 28572 ft | 471 kts | 40° |
| 2026-05-05 20:55 | 33.54540 | -15.51576 | 28913 ft | 474 kts | 41° |
| 2026-05-05 20:55 | 33.56954 | -15.48868 | 29227 ft | 477 kts | 41° |
| 2026-05-05 20:56 | 33.59378 | -15.46137 | 29548 ft | 479 kts | 41° |
| 2026-05-05 20:56 | 33.61806 | -15.43391 | 29856 ft | 482 kts | 41° |
| 2026-05-05 20:56 | 33.64252 | -15.40622 | 30164 ft | 485 kts | 41° |
| 2026-05-05 20:56 | 33.66710 | -15.37840 | 30415 ft | 487 kts | 41° |
| 2026-05-05 20:57 | 33.69186 | -15.35037 | 30660 ft | 489 kts | 41° |
| 2026-05-05 20:57 | 33.71662 | -15.32231 | 30905 ft | 492 kts | 41° |
| 2026-05-05 20:57 | 33.74155 | -15.29403 | 31148 ft | 494 kts | 41° |
| 2026-05-05 20:57 | 33.76658 | -15.26565 | 31416 ft | 495 kts | 41° |
| 2026-05-05 20:58 | 33.79158 | -15.23724 | 31787 ft | 494 kts | 41° |
| 2026-05-05 20:58 | 33.81654 | -15.20885 | 32137 ft | 494 kts | 40° |
| 2026-05-05 20:58 | 33.84150 | -15.18048 | 32475 ft | 493 kts | 40° |
| 2026-05-05 20:58 | 33.86610 | -15.15248 | 32820 ft | 493 kts | 40° |
| 2026-05-05 20:59 | 33.89101 | -15.12412 | 33159 ft | 493 kts | 40° |
| 2026-05-05 20:59 | 33.91624 | -15.09538 | 33505 ft | 493 kts | 40° |
| 2026-05-05 20:59 | 33.94077 | -15.06738 | 33860 ft | 492 kts | 40° |
| 2026-05-05 20:59 | 33.96562 | -15.03895 | 34213 ft | 491 kts | 40° |
| 2026-05-05 21:00 | 33.99035 | -15.01057 | 34522 ft | 491 kts | 40° |
| 2026-05-05 21:00 | 34.01507 | -14.98228 | 34839 ft | 489 kts | 40° |
| 2026-05-05 21:00 | 34.03968 | -14.95411 | 35152 ft | 488 kts | 40° |
| 2026-05-05 21:00 | 34.06429 | -14.92591 | 35449 ft | 488 kts | 40° |
| 2026-05-05 21:01 | 34.08885 | -14.89774 | 35741 ft | 487 kts | 40° |
| 2026-05-05 21:01 | 34.11337 | -14.86957 | 36023 ft | 486 kts | 40° |
| 2026-05-05 21:01 | 34.13778 | -14.84149 | 36143 ft | 485 kts | 40° |
| 2026-05-05 21:01 | 34.16221 | -14.81339 | 36161 ft | 483 kts | 40° |
| 2026-05-05 21:02 | 34.21078 | -14.75744 | 36161 ft | 482 kts | 40° |
| 2026-05-05 21:02 | 34.25925 | -14.70149 | 36161 ft | 482 kts | 40° |
| 2026-05-05 21:03 | 34.30767 | -14.64549 | 36164 ft | 482 kts | 40° |
| 2026-05-05 21:03 | 34.35579 | -14.58979 | 36167 ft | 482 kts | 40° |
| 2026-05-05 21:04 | 34.40423 | -14.53371 | 36176 ft | 482 kts | 40° |
| 2026-05-05 21:04 | 34.45258 | -14.47752 | 36173 ft | 482 kts | 41° |
| 2026-05-05 21:05 | 34.50090 | -14.42132 | 36175 ft | 481 kts | 41° |
| 2026-05-05 21:05 | 34.54915 | -14.36499 | 36176 ft | 481 kts | 41° |
| 2026-05-05 21:06 | 34.59737 | -14.30861 | 36177 ft | 481 kts | 41° |
| 2026-05-05 21:06 | 34.64556 | -14.25223 | 36182 ft | 481 kts | 41° |
| 2026-05-05 21:07 | 34.69381 | -14.19583 | 36179 ft | 481 kts | 41° |
| 2026-05-05 21:07 | 34.74183 | -14.13944 | 36174 ft | 480 kts | 41° |
| 2026-05-05 21:08 | 34.78988 | -14.08298 | 36172 ft | 480 kts | 41° |
| 2026-05-05 21:08 | 34.83760 | -14.02687 | 36171 ft | 480 kts | 41° |
| 2026-05-05 21:09 | 34.88562 | -13.97023 | 36170 ft | 480 kts | 41° |
| 2026-05-05 21:09 | 34.93346 | -13.91359 | 36171 ft | 480 kts | 41° |
| 2026-05-05 21:10 | 34.97332 | -13.86648 | 36173 ft | 480 kts | 41° |
| 2026-05-05 21:10 | 35.02117 | -13.80976 | 36174 ft | 480 kts | 41° |
| 2026-05-05 21:11 | 35.06911 | -13.75284 | 36179 ft | 480 kts | 41° |
| 2026-05-05 21:11 | 35.11699 | -13.69591 | 36177 ft | 480 kts | 41° |
| 2026-05-05 21:12 | 35.16476 | -13.63893 | 36165 ft | 480 kts | 41° |
| 2026-05-05 21:12 | 35.21256 | -13.58190 | 36184 ft | 480 kts | 41° |
| 2026-05-05 21:13 | 35.26037 | -13.52486 | 36175 ft | 480 kts | 41° |
| 2026-05-05 21:13 | 35.30808 | -13.46774 | 36172 ft | 480 kts | 41° |
| 2026-05-05 21:14 | 35.35571 | -13.41045 | 36183 ft | 480 kts | 41° |
| 2026-05-05 21:14 | 35.40331 | -13.35313 | 36174 ft | 480 kts | 41° |
| 2026-05-05 21:15 | 35.45097 | -13.29591 | 36172 ft | 479 kts | 41° |
| 2026-05-05 21:15 | 35.49825 | -13.23902 | 36178 ft | 479 kts | 41° |
| 2026-05-05 21:16 | 35.54573 | -13.18163 | 36171 ft | 479 kts | 41° |
| 2026-05-05 21:16 | 35.59313 | -13.12429 | 36171 ft | 479 kts | 41° |
| 2026-05-05 21:17 | 35.64056 | -13.06681 | 36172 ft | 479 kts | 41° |
| 2026-05-05 21:17 | 35.68801 | -13.00913 | 36169 ft | 479 kts | 41° |
| 2026-05-05 21:18 | 35.73534 | -12.95148 | 36171 ft | 480 kts | 41° |
| 2026-05-05 21:18 | 35.78281 | -12.89356 | 36173 ft | 480 kts | 41° |
| 2026-05-05 21:19 | 35.83023 | -12.83569 | 36170 ft | 480 kts | 41° |
| 2026-05-05 21:19 | 35.87759 | -12.77783 | 36173 ft | 480 kts | 41° |
| 2026-05-05 21:20 | 35.92499 | -12.71975 | 36172 ft | 480 kts | 42° |
| 2026-05-05 21:20 | 35.97194 | -12.66196 | 36178 ft | 480 kts | 42° |
| 2026-05-05 21:21 | 36.01922 | -12.60384 | 36174 ft | 480 kts | 42° |
| 2026-05-05 21:21 | 36.06656 | -12.54572 | 36173 ft | 479 kts | 41° |
| 2026-05-05 21:22 | 36.11508 | -12.48930 | 36175 ft | 478 kts | 39° |
| 2026-05-05 21:22 | 36.16449 | -12.43408 | 36175 ft | 479 kts | 39° |
| 2026-05-05 21:23 | 36.21370 | -12.37851 | 36178 ft | 479 kts | 39° |
| 2026-05-05 21:23 | 36.26258 | -12.32243 | 36176 ft | 479 kts | 40° |
| 2026-05-05 21:24 | 36.31101 | -12.26651 | 36174 ft | 479 kts | 40° |
| 2026-05-05 21:24 | 36.35973 | -12.21018 | 36174 ft | 479 kts | 40° |
| 2026-05-05 21:25 | 36.40847 | -12.15380 | 36176 ft | 479 kts | 40° |
| 2026-05-05 21:25 | 36.45729 | -12.09749 | 36175 ft | 479 kts | 39° |
| 2026-05-05 21:26 | 36.50608 | -12.04108 | 36176 ft | 479 kts | 40° |
| 2026-05-05 21:26 | 36.55483 | -11.98450 | 36178 ft | 479 kts | 40° |
| 2026-05-05 21:27 | 36.60315 | -11.92832 | 36183 ft | 479 kts | 40° |
| 2026-05-05 21:27 | 36.65176 | -11.87170 | 36174 ft | 478 kts | 40° |
| 2026-05-05 21:28 | 36.70032 | -11.81501 | 36166 ft | 478 kts | 40° |
| 2026-05-05 21:28 | 36.74882 | -11.75821 | 36168 ft | 478 kts | 40° |
| 2026-05-05 21:29 | 36.79736 | -11.70142 | 36166 ft | 478 kts | 40° |
| 2026-05-05 21:29 | 36.84586 | -11.64454 | 36165 ft | 478 kts | 40° |
| 2026-05-05 21:30 | 36.89434 | -11.58760 | 36161 ft | 478 kts | 40° |
| 2026-05-05 21:30 | 36.94243 | -11.53093 | 36161 ft | 478 kts | 40° |
| 2026-05-05 21:31 | 36.99081 | -11.47382 | 36160 ft | 478 kts | 40° |
| 2026-05-05 21:31 | 37.03918 | -11.41669 | 36154 ft | 478 kts | 40° |
| 2026-05-05 21:32 | 37.08753 | -11.35950 | 36152 ft | 478 kts | 40° |
| 2026-05-05 21:32 | 37.13581 | -11.30220 | 36149 ft | 478 kts | 40° |
| 2026-05-05 21:33 | 37.18408 | -11.24488 | 36150 ft | 478 kts | 40° |
| 2026-05-05 21:33 | 37.23223 | -11.18752 | 36144 ft | 478 kts | 40° |
| 2026-05-05 21:34 | 37.28045 | -11.12996 | 36141 ft | 478 kts | 40° |
| 2026-05-05 21:34 | 37.32858 | -11.07243 | 36141 ft | 478 kts | 40° |
| 2026-05-05 21:35 | 37.37672 | -11.01492 | 36142 ft | 478 kts | 40° |
| 2026-05-05 21:35 | 37.42466 | -10.95750 | 36076 ft | 482 kts | 40° |
| 2026-05-05 21:36 | 37.44919 | -10.92807 | 35830 ft | 493 kts | 40° |
| 2026-05-05 21:36 | 37.47407 | -10.89814 | 35579 ft | 496 kts | 40° |
| 2026-05-05 21:36 | 37.49906 | -10.86805 | 34855 ft | 500 kts | 40° |
| 2026-05-05 21:36 | 37.52426 | -10.83771 | 34231 ft | 498 kts | 40° |
| 2026-05-05 21:37 | 37.54908 | -10.80775 | 33721 ft | 492 kts | 40° |
| 2026-05-05 21:37 | 37.57381 | -10.77785 | 32769 ft | 494 kts | 40° |
| 2026-05-05 21:37 | 37.59877 | -10.74766 | 31831 ft | 498 kts | 40° |
| 2026-05-05 21:37 | 37.62371 | -10.71747 | 31162 ft | 495 kts | 40° |
| 2026-05-05 21:38 | 37.64841 | -10.68756 | 30513 ft | 492 kts | 40° |
| 2026-05-05 21:38 | 37.67300 | -10.65776 | 29822 ft | 488 kts | 41° |
| 2026-05-05 21:38 | 37.69734 | -10.62820 | 29192 ft | 482 kts | 41° |
| 2026-05-05 21:38 | 37.72140 | -10.59897 | 28567 ft | 477 kts | 41° |
| 2026-05-05 21:39 | 37.74514 | -10.57007 | 28036 ft | 470 kts | 41° |
| 2026-05-05 21:39 | 37.76861 | -10.54149 | 27446 ft | 465 kts | 41° |
| 2026-05-05 21:39 | 37.79180 | -10.51325 | 26825 ft | 461 kts | 41° |
| 2026-05-05 21:39 | 37.81422 | -10.48595 | 26186 ft | 446 kts | 41° |
| 2026-05-05 21:40 | 37.83607 | -10.45929 | 25698 ft | 428 kts | 41° |
| 2026-05-05 21:40 | 37.85703 | -10.43362 | 25202 ft | 411 kts | 41° |
| 2026-05-05 21:40 | 37.87709 | -10.40840 | 24722 ft | 406 kts | 43° |
| 2026-05-05 21:40 | 37.89674 | -10.38257 | 24234 ft | 407 kts | 44° |
| 2026-05-05 21:41 | 37.91602 | -10.35650 | 23748 ft | 404 kts | 45° |
| 2026-05-05 21:41 | 37.93505 | -10.33045 | 23212 ft | 402 kts | 45° |
| 2026-05-05 21:41 | 37.95388 | -10.30464 | 22730 ft | 397 kts | 45° |
| 2026-05-05 21:41 | 37.97264 | -10.27907 | 22262 ft | 393 kts | 45° |
| 2026-05-05 21:42 | 37.99125 | -10.25389 | 21797 ft | 390 kts | 44° |
| 2026-05-05 21:42 | 38.00976 | -10.22898 | 21333 ft | 386 kts | 44° |
| 2026-05-05 21:42 | 38.02814 | -10.20430 | 20868 ft | 383 kts | 44° |
| 2026-05-05 21:42 | 38.04639 | -10.17981 | 20418 ft | 381 kts | 44° |
| 2026-05-05 21:43 | 38.06449 | -10.15547 | 19959 ft | 378 kts | 44° |
| 2026-05-05 21:43 | 38.08247 | -10.13125 | 19509 ft | 376 kts | 44° |
| 2026-05-05 21:43 | 38.10032 | -10.10715 | 19063 ft | 374 kts | 44° |
| 2026-05-05 21:43 | 38.11780 | -10.08349 | 18647 ft | 371 kts | 44° |
| 2026-05-05 21:44 | 38.13559 | -10.05937 | 18196 ft | 368 kts | 44° |
| 2026-05-05 21:44 | 38.15278 | -10.03609 | 17903 ft | 361 kts | 44° |
| 2026-05-05 21:44 | 38.16998 | -10.01360 | 17767 ft | 348 kts | 39° |
| 2026-05-05 21:44 | 38.18918 | -9.99603 | 17600 ft | 334 kts | 26° |
| 2026-05-05 21:45 | 38.21004 | -9.98378 | 17164 ft | 331 kts | 19° |
| 2026-05-05 21:45 | 38.23121 | -9.97267 | 16867 ft | 327 kts | 19° |
| 2026-05-05 21:45 | 38.25222 | -9.96168 | 16495 ft | 325 kts | 19° |
| 2026-05-05 21:45 | 38.27292 | -9.95085 | 15911 ft | 320 kts | 19° |
| 2026-05-05 21:46 | 38.29339 | -9.94012 | 15496 ft | 317 kts | 19° |
| 2026-05-05 21:46 | 38.31373 | -9.92945 | 15111 ft | 315 kts | 19° |
| 2026-05-05 21:46 | 38.33397 | -9.91845 | 14731 ft | 325 kts | 25° |
| 2026-05-05 21:46 | 38.35183 | -9.90042 | 14339 ft | 328 kts | 48° |
| 2026-05-05 21:47 | 38.36506 | -9.87730 | 13960 ft | 318 kts | 53° |
| 2026-05-05 21:47 | 38.37720 | -9.85418 | 13545 ft | 309 kts | 54° |
| 2026-05-05 21:47 | 38.38891 | -9.83162 | 13124 ft | 303 kts | 54° |
| 2026-05-05 21:47 | 38.40043 | -9.80924 | 12712 ft | 301 kts | 54° |
| 2026-05-05 21:48 | 38.41197 | -9.78679 | 12309 ft | 303 kts | 53° |
| 2026-05-05 21:48 | 38.42350 | -9.76426 | 11898 ft | 304 kts | 54° |
| 2026-05-05 21:48 | 38.43505 | -9.74167 | 11499 ft | 304 kts | 53° |
| 2026-05-05 21:48 | 38.44644 | -9.71933 | 11105 ft | 304 kts | 54° |
| 2026-05-05 21:49 | 38.45792 | -9.69664 | 10724 ft | 305 kts | 56° |
| 2026-05-05 21:49 | 38.46596 | -9.67155 | 10329 ft | 308 kts | 72° |
| 2026-05-05 21:49 | 38.47119 | -9.64506 | 9941 ft | 308 kts | 74° |
| 2026-05-05 21:49 | 38.47613 | -9.61853 | 9519 ft | 307 kts | 74° |
| 2026-05-05 21:50 | 38.48095 | -9.59236 | 9096 ft | 298 kts | 74° |
| 2026-05-05 21:50 | 38.48551 | -9.56722 | 8752 ft | 283 kts | 74° |
| 2026-05-05 21:50 | 38.48976 | -9.54339 | 8469 ft | 268 kts | 74° |
| 2026-05-05 21:50 | 38.49371 | -9.52081 | 8272 ft | 251 kts | 74° |
| 2026-05-05 21:51 | 38.49733 | -9.49964 | 8007 ft | 239 kts | 73° |
| 2026-05-05 21:51 | 38.50129 | -9.47963 | 7729 ft | 227 kts | 62° |
| 2026-05-05 21:51 | 38.50923 | -9.46272 | 7453 ft | 221 kts | 52° |
| 2026-05-05 21:51 | 38.51775 | -9.44650 | 7143 ft | 219 kts | 53° |
| 2026-05-05 21:52 | 38.53449 | -9.41440 | 6517 ft | 219 kts | 53° |
| 2026-05-05 21:52 | 38.54294 | -9.39820 | 6178 ft | 219 kts | 53° |
| 2026-05-05 21:52 | 38.55138 | -9.38198 | 5840 ft | 219 kts | 53° |
| 2026-05-05 21:53 | 38.55982 | -9.36579 | 5506 ft | 219 kts | 53° |
| 2026-05-05 21:53 | 38.56827 | -9.34957 | 5195 ft | 220 kts | 53° |
| 2026-05-05 21:53 | 38.57673 | -9.33329 | 4893 ft | 220 kts | 53° |
| 2026-05-05 21:53 | 38.58508 | -9.31719 | 4723 ft | 213 kts | 53° |
| 2026-05-05 21:54 | 38.59316 | -9.30166 | 4602 ft | 206 kts | 52° |
| 2026-05-05 21:54 | 38.60096 | -9.28664 | 4469 ft | 199 kts | 52° |
| 2026-05-05 21:54 | 38.60850 | -9.27211 | 4308 ft | 194 kts | 52° |
| 2026-05-05 21:54 | 38.61616 | -9.25740 | 3908 ft | 202 kts | 52° |
| 2026-05-05 21:55 | 38.62403 | -9.24227 | 3589 ft | 206 kts | 52° |
| 2026-05-05 21:55 | 38.63190 | -9.22717 | 3278 ft | 206 kts | 52° |
| 2026-05-05 21:55 | 38.64081 | -9.21301 | 3053 ft | 196 kts | 35° |
| 2026-05-05 21:55 | 38.65204 | -9.20486 | 2906 ft | 186 kts | 20° |
| 2026-05-05 21:56 | 38.66401 | -9.19851 | 2588 ft | 187 kts | 20° |
| 2026-05-05 21:56 | 38.67581 | -9.19225 | 2362 ft | 180 kts | 20° |
| 2026-05-05 21:56 | 38.68717 | -9.18620 | 2095 ft | 170 kts | 19° |
| 2026-05-05 21:56 | 38.69751 | -9.18067 | 1867 ft | 152 kts | 19° |
| 2026-05-05 21:57 | 38.70684 | -9.17570 | 1663 ft | 139 kts | 19° |
| 2026-05-05 21:57 | 38.71561 | -9.17103 | 1473 ft | 134 kts | 19° |
| 2026-05-05 21:57 | 38.72417 | -9.16647 | 1293 ft | 135 kts | 19° |
| 2026-05-05 21:57 | 38.73298 | -9.16177 | 1100 ft | 137 kts | 19° |
| 2026-05-05 21:58 | 38.74176 | -9.15709 | 905 ft | 138 kts | 19° |
| 2026-05-05 21:58 | 38.75055 | -9.15239 | 728 ft | 137 kts | 19° |
| 2026-05-05 21:58 | 38.75931 | -9.14766 | 564 ft | 137 kts | 18° |
| 2026-05-05 21:58 | 38.76805 | -9.14297 | 373 ft | 136 kts | 18° |
| 2026-05-05 21:59 | 38.77610 | -9.13882 | 368 ft | 103 kts | 19° |
| 2026-05-05 21:59 | 38.78107 | -9.13606 | 367 ft | 53 kts | 21° |
| 2026-05-05 21:59 | 38.78241 | -9.13484 | 365 ft | 9 kts | 94° |
| 2026-05-05 21:59 | 38.78224 | -9.13473 | 367 ft | 3 kts | 159° |
| 2026-05-05 22:00 | 38.78184 | -9.13461 | 368 ft | 6 kts | 169° |
| 2026-05-05 22:00 | 38.78147 | -9.13450 | 362 ft | 6 kts | 166° |
| 2026-05-05 22:00 | 38.78101 | -9.13437 | 361 ft | 8 kts | 168° |
| 2026-05-05 22:00 | 38.78079 | -9.13431 | 360 ft | 0 kts | 169° |
| 2026-05-05 22:01 | 38.78068 | -9.13429 | 366 ft | 0 kts | 169° |
| 2026-05-05 22:01 | 38.78023 | -9.13417 | 357 ft | 16 kts | 168° |
| 2026-05-05 22:02 | 38.77905 | -9.13385 | 354 ft | 18 kts | 168° |
| 2026-05-05 22:02 | 38.77785 | -9.13360 | 346 ft | 10 kts | 170° |
| 2026-05-05 22:02 | 38.77701 | -9.13340 | 337 ft | 15 kts | 168° |
| 2026-05-05 22:02 | 38.77598 | -9.13321 | 338 ft | 15 kts | 176° |
| 2026-05-05 22:03 | 38.77490 | -9.13296 | 334 ft | 18 kts | 169° |
| 2026-05-05 22:03 | 38.77374 | -9.13266 | 336 ft | 16 kts | 171° |
| 2026-05-05 22:03 | 38.77260 | -9.13242 | 338 ft | 18 kts | 169° |
| 2026-05-05 22:03 | 38.77142 | -9.13210 | 338 ft | 15 kts | 168° |
| 2026-05-05 22:04 | 38.77102 | -9.13189 | 336 ft | 3 kts | 101° |
| 2026-05-05 22:04 | 38.77109 | -9.13150 | 336 ft | 5 kts | 78° |
| 2026-05-05 22:04 | 38.77112 | -9.13132 | 336 ft | 0 kts | 79° |
| 2026-05-05 22:04 | 38.77113 | -9.13124 | 336 ft | 1 kts | 78° |
| 2026-05-05 22:05 | 38.77115 | -9.13113 | 337 ft | 1 kts | 78° |
| 2026-05-05 22:05 | 38.77115 | -9.13111 | 337 ft | 0 kts | 78° |
| 2026-05-05 22:24 | 38.77115 | -9.13112 | 337 ft | 0 kts | 78° |